Blanford, Indiana
Current Conditions -  °F | °C
As of 6:35 AM on Saturday 25 Oct 2014 (Local Time) from KPRG Reporting Station
Clear Clear  
Wind Chill: 55°   Ceiling: Unl
Heat Index: 55°   Visibility: 10mi
Dew Point: 53°   Wind: 6mph
Humidity: 92%   Direction: 230°SW
Pressure: 29.97"   Gusts: NA
Location:  39.66°N, 87.52°W
Report Text: KPRG 251035Z AUTO 23005KT 10SM CLR 13/12 A2997 RMK AO2 T01300117
Loading
Personal Weather Stations






























Interactive Weather Map New forecast layout! Learn more

10-Day Weather Forecast

Advertisements
Track Severe Weather on mobile